Time;durP1;ratioP1;P1;durP2;ratioP2;P2;SDS_P1;SDS_P2;PMS_P1;PMS_P2;Temp;Humidity;BMP_temperature;BMP_pressure;BME280_temperature;BME280_humidity;BME280_pressure;Samples;Min_cycle;Max_cycle;Signal;HPM_P1;HPM_P2
2022/07/05 00:00:00;;;;;;;0.17;0.10;;;;;;;;;;5026541;28;20140;-70
2022/07/05 00:02:28;;;;;;;0.10;0.10;;;;;;;;;;5031475;28;20147;-71
2022/07/05 00:04:57;;;;;;;0.93;0.65;;;;;;;;;;5030345;28;20048;-71
2022/07/05 00:07:25;;;;;;;0.10;0.10;;;;;;;;;;5027211;28;20052;-71
2022/07/05 00:09:55;;;;;;;0.98;0.57;;;;;;;;;;5032049;28;20136;-70
2022/07/05 00:12:25;;;;;;;0.00;0.00;;;;;;;;;;5033509;28;20045;-70
2022/07/05 00:14:54;;;;;;;0.10;0.10;;;;;;;;;;5030403;28;20129;-70
2022/07/05 00:17:22;;;;;;;0.05;0.05;;;;;;;;;;5031573;28;20053;-73
2022/07/05 00:19:50;;;;;;;4.68;0.22;;;;;;;;;;5032924;28;20045;-70
2022/07/05 00:22:19;;;;;;;0.43;0.40;;;;;;;;;;5032284;28;20133;-71
2022/07/05 00:24:47;;;;;;;0.20;0.20;;;;;;;;;;5030703;28;20489;-70
2022/07/05 00:27:15;;;;;;;0.20;0.20;;;;;;;;;;5033568;28;20076;-70
2022/07/05 00:29:45;;;;;;;0.08;0.08;;;;;;;;;;5029054;28;20050;-70
2022/07/05 00:32:14;;;;;;;0.65;0.10;;;;;;;;;;5024665;28;20049;-70
2022/07/05 00:34:42;;;;;;;0.50;0.20;;;;;;;;;;5030055;28;20124;-70
2022/07/05 00:37:12;;;;;;;0.08;0.08;;;;;;;;;;5029334;28;20532;-70
2022/07/05 00:39:40;;;;;;;0.00;0.00;;;;;;;;;;5031517;28;20132;-70
2022/07/05 00:42:09;;;;;;;0.00;0.00;;;;;;;;;;5033048;28;20111;-70
2022/07/05 00:44:41;;;;;;;0.30;0.10;;;;;;;;;;5030499;28;20136;-70
2022/07/05 00:47:12;;;;;;;0.40;0.40;;;;;;;;;;5025859;28;20045;-70
2022/07/05 00:49:41;;;;;;;0.10;0.10;;;;;;;;;;5030819;28;20055;-70
2022/07/05 00:52:10;;;;;;;0.05;0.05;;;;;;;;;;5027035;28;20132;-70
2022/07/05 00:54:48;;;;;;;0.00;0.00;;;;;;;;;;5031113;28;20037;-69
2022/07/05 00:57:16;;;;;;;0.10;0.10;;;;;;;;;;5031390;28;20132;-71
2022/07/05 00:59:45;;;;;;;0.10;0.10;;;;;;;;;;5029510;28;20050;-69
2022/07/05 01:02:14;;;;;;;0.20;0.20;;;;;;;;;;5016880;28;20132;-70
2022/07/05 01:04:47;;;;;;;0.10;0.10;;;;;;;;;;5029379;28;20076;-69
2022/07/05 01:07:16;;;;;;;0.00;0.00;;;;;;;;;;5031804;28;20077;-69
2022/07/05 01:09:44;;;;;;;0.08;0.08;;;;;;;;;;5029304;28;20064;-70
2022/07/05 01:12:12;;;;;;;0.20;0.15;;;;;;;;;;5024696;28;20560;-70
2022/07/05 01:14:43;;;;;;;0.17;0.10;;;;;;;;;;5029790;28;20136;-70
2022/07/05 01:17:12;;;;;;;0.10;0.10;;;;;;;;;;5030168;28;20133;-69
2022/07/05 01:19:42;;;;;;;0.22;0.22;;;;;;;;;;5030460;28;20049;-70
2022/07/05 01:22:14;;;;;;;0.40;0.32;;;;;;;;;;5031862;28;20568;-69
2022/07/05 01:24:43;;;;;;;0.17;0.10;;;;;;;;;;5028227;28;20140;-70
2022/07/05 01:27:13;;;;;;;0.13;0.13;;;;;;;;;;5030393;28;20053;-69
2022/07/05 01:29:42;;;;;;;0.05;0.05;;;;;;;;;;5028805;28;20489;-70
2022/07/05 01:32:10;;;;;;;0.10;0.08;;;;;;;;;;5020856;28;20576;-70
2022/07/05 01:34:39;;;;;;;0.17;0.17;;;;;;;;;;5029810;28;20092;-69
2022/07/05 01:37:09;;;;;;;0.20;0.20;;;;;;;;;;5029855;28;20054;-70
2022/07/05 01:39:38;;;;;;;0.10;0.10;;;;;;;;;;5030792;28;20838;-69
2022/07/05 01:42:08;;;;;;;0.10;0.10;;;;;;;;;;5030731;28;20140;-75
2022/07/05 01:44:36;;;;;;;0.22;0.22;;;;;;;;;;5029653;28;20696;-70
2022/07/05 01:47:06;;;;;;;0.10;0.10;;;;;;;;;;5030437;28;20063;-72
2022/07/05 01:49:36;;;;;;;0.77;0.30;;;;;;;;;;5029939;28;20077;-70
2022/07/05 01:52:09;;;;;;;0.00;0.00;;;;;;;;;;5029877;28;20140;-73
2022/07/05 01:54:37;;;;;;;0.40;0.10;;;;;;;;;;5018392;28;20049;-70
2022/07/05 01:57:06;;;;;;;0.20;0.20;;;;;;;;;;5030999;28;20132;-70
2022/07/05 01:59:37;;;;;;;0.10;0.10;;;;;;;;;;5028350;28;20088;-70
2022/07/05 02:02:05;;;;;;;3.33;0.70;;;;;;;;;;5031709;28;20073;-72
2022/07/05 02:04:34;;;;;;;0.05;0.05;;;;;;;;;;5028628;28;20176;-71
2022/07/05 02:07:05;;;;;;;0.25;0.25;;;;;;;;;;5029747;28;20075;-71
2022/07/05 02:09:34;;;;;;;0.52;0.28;;;;;;;;;;5030079;28;20131;-71
2022/07/05 02:12:03;;;;;;;0.45;0.30;;;;;;;;;;5023733;28;20084;-72
2022/07/05 02:14:32;;;;;;;0.00;0.00;;;;;;;;;;5014020;28;20050;-70
2022/07/05 02:17:02;;;;;;;0.03;0.03;;;;;;;;;;5026444;28;20052;-71
2022/07/05 02:19:30;;;;;;;0.10;0.10;;;;;;;;;;5030149;28;20049;-70
2022/07/05 02:21:58;;;;;;;2.17;0.20;;;;;;;;;;5029923;28;20084;-73
2022/07/05 02:24:27;;;;;;;0.30;0.30;;;;;;;;;;5030888;28;20056;-70
2022/07/05 02:26:55;;;;;;;0.00;0.00;;;;;;;;;;5028069;28;20142;-71
2022/07/05 02:29:24;;;;;;;0.15;0.03;;;;;;;;;;5032012;28;20050;-71
2022/07/05 02:31:52;;;;;;;0.20;0.20;;;;;;;;;;5027436;28;20042;-71
2022/07/05 02:34:22;;;;;;;0.13;0.13;;;;;;;;;;5028305;28;20054;-72
2022/07/05 02:36:50;;;;;;;0.10;0.10;;;;;;;;;;5014985;28;20068;-70
2022/07/05 02:39:19;;;;;;;1.42;1.33;;;;;;;;;;5031781;28;20104;-71
2022/07/05 02:41:47;;;;;;;0.08;0.08;;;;;;;;;;5028826;28;20081;-70
2022/07/05 02:44:15;;;;;;;0.28;0.20;;;;;;;;;;5029603;28;20682;-70
2022/07/05 02:46:44;;;;;;;0.20;0.20;;;;;;;;;;5027443;28;20552;-71
2022/07/05 02:49:12;;;;;;;0.85;0.43;;;;;;;;;;5021556;28;20089;-70
2022/07/05 02:51:42;;;;;;;0.10;0.10;;;;;;;;;;5029211;28;20519;-70
2022/07/05 02:54:10;;;;;;;0.55;0.28;;;;;;;;;;5031357;28;20053;-70
2022/07/05 02:56:39;;;;;;;0.68;0.40;;;;;;;;;;5027878;28;20054;-70
2022/07/05 02:59:07;;;;;;;0.10;0.10;;;;;;;;;;5031235;28;20057;-71
2022/07/05 03:01:36;;;;;;;0.17;0.17;;;;;;;;;;5029118;28;20079;-70
2022/07/05 03:04:06;;;;;;;0.30;0.30;;;;;;;;;;5014554;28;20054;-70
2022/07/05 03:06:34;;;;;;;0.20;0.20;;;;;;;;;;5025187;28;20056;-71
2022/07/05 03:09:04;;;;;;;0.17;0.03;;;;;;;;;;5028742;28;20073;-71
2022/07/05 03:11:32;;;;;;;0.30;0.30;;;;;;;;;;5027346;28;20056;-71
2022/07/05 03:14:01;;;;;;;0.45;0.17;;;;;;;;;;5029694;28;20448;-70
2022/07/05 03:16:29;;;;;;;0.20;0.20;;;;;;;;;;5027779;28;20080;-71
2022/07/05 03:18:58;;;;;;;0.10;0.10;;;;;;;;;;5028072;28;20045;-70
2022/07/05 03:21:26;;;;;;;0.20;0.17;;;;;;;;;;5029612;28;20045;-71
2022/07/05 03:23:54;;;;;;;0.52;0.40;;;;;;;;;;5028071;28;20117;-70
2022/07/05 03:26:24;;;;;;;0.60;0.38;;;;;;;;;;5028954;28;20120;-71
2022/07/05 03:28:52;;;;;;;0.20;0.20;;;;;;;;;;5029202;28;20073;-71
2022/07/05 03:31:21;;;;;;;0.10;0.10;;;;;;;;;;5018282;28;20103;-71
2022/07/05 03:33:49;;;;;;;0.17;0.10;;;;;;;;;;5029932;28;20077;-70
2022/07/05 03:36:18;;;;;;;0.30;0.30;;;;;;;;;;5027280;28;20128;-71
2022/07/05 03:38:46;;;;;;;0.20;0.20;;;;;;;;;;5030476;28;20051;-70
2022/07/05 03:41:14;;;;;;;0.10;0.10;;;;;;;;;;5021996;28;20078;-71
2022/07/05 03:43:44;;;;;;;0.00;0.00;;;;;;;;;;5030205;28;20115;-71
2022/07/05 03:46:12;;;;;;;0.47;0.20;;;;;;;;;;5025915;28;20560;-71
2022/07/05 03:48:41;;;;;;;0.60;0.28;;;;;;;;;;5022920;28;20108;-70
2022/07/05 03:51:09;;;;;;;0.47;0.47;;;;;;;;;;5023027;28;20107;-70
2022/07/05 03:53:38;;;;;;;0.03;0.03;;;;;;;;;;5028266;28;20050;-70
2022/07/05 03:56:09;;;;;;;0.10;0.10;;;;;;;;;;5029788;28;20046;-71
2022/07/05 03:58:37;;;;;;;0.15;0.15;;;;;;;;;;5028411;28;20049;-70
2022/07/05 04:01:10;;;;;;;0.43;0.13;;;;;;;;;;5026096;28;20489;-71
2022/07/05 04:03:39;;;;;;;0.10;0.10;;;;;;;;;;5028327;28;20087;-71
2022/07/05 04:06:08;;;;;;;0.03;0.03;;;;;;;;;;5026254;28;20149;-71
2022/07/05 04:08:37;;;;;;;0.30;0.30;;;;;;;;;;5028798;28;20485;-71
2022/07/05 04:11:12;;;;;;;0.20;0.20;;;;;;;;;;5023033;28;20278;-71
2022/07/05 04:13:41;;;;;;;0.10;0.10;;;;;;;;;;5014833;28;20126;-71
2022/07/05 04:16:11;;;;;;;1.15;0.30;;;;;;;;;;5025359;28;20077;-71
2022/07/05 04:18:39;;;;;;;0.43;0.43;;;;;;;;;;5029577;28;20053;-71
2022/07/05 04:21:07;;;;;;;0.10;0.10;;;;;;;;;;5027369;28;20049;-71
2022/07/05 04:23:36;;;;;;;0.00;0.00;;;;;;;;;;5014397;28;20049;-73
2022/07/05 04:26:09;;;;;;;0.20;0.20;;;;;;;;;;5028777;28;20824;-72
2022/07/05 04:28:37;;;;;;;0.32;0.20;;;;;;;;;;5027519;28;20140;-71
2022/07/05 04:31:08;;;;;;;0.10;0.10;;;;;;;;;;5029342;28;20045;-71
2022/07/05 04:33:39;;;;;;;3.63;0.10;;;;;;;;;;5031157;28;20136;-71
2022/07/05 04:36:08;;;;;;;0.10;0.10;;;;;;;;;;5024009;28;20089;-71
2022/07/05 04:38:36;;;;;;;0.00;0.00;;;;;;;;;;5013935;28;20053;-71
2022/07/05 04:41:14;;;;;;;0.10;0.10;;;;;;;;;;5009922;28;20054;-71
2022/07/05 04:43:42;;;;;;;1.13;0.20;;;;;;;;;;5012856;28;20136;-70
2022/07/05 04:46:10;;;;;;;0.38;0.35;;;;;;;;;;5018866;28;20500;-71
2022/07/05 04:48:40;;;;;;;0.25;0.20;;;;;;;;;;5012069;28;20065;-72
2022/07/05 04:51:09;;;;;;;0.00;0.00;;;;;;;;;;5017197;28;20049;-71
2022/07/05 04:53:37;;;;;;;0.10;0.10;;;;;;;;;;5018515;28;20053;-72
2022/07/05 04:56:09;;;;;;;0.55;0.55;;;;;;;;;;5014433;28;20089;-71
2022/07/05 04:58:37;;;;;;;0.10;0.10;;;;;;;;;;5008185;28;20077;-73
2022/07/05 05:01:09;;;;;;;0.10;0.10;;;;;;;;;;5008292;28;20501;-71
2022/07/05 05:03:37;;;;;;;0.10;0.10;;;;;;;;;;4997430;28;20050;-72
2022/07/05 05:06:10;;;;;;;0.15;0.10;;;;;;;;;;5004995;28;20153;-71
2022/07/05 05:08:38;;;;;;;0.22;0.22;;;;;;;;;;5005319;28;20081;-71
2022/07/05 05:11:10;;;;;;;0.10;0.10;;;;;;;;;;5013540;28;20045;-71
2022/07/05 05:13:38;;;;;;;0.20;0.10;;;;;;;;;;5007576;28;20046;-72
2022/07/05 05:16:10;;;;;;;0.20;0.20;;;;;;;;;;5009325;28;20209;-71
2022/07/05 05:18:38;;;;;;;0.40;0.35;;;;;;;;;;5007913;28;20058;-71
2022/07/05 05:21:11;;;;;;;0.30;0.30;;;;;;;;;;5008663;28;20476;-71
2022/07/05 05:23:39;;;;;;;0.00;0.00;;;;;;;;;;5005201;28;20046;-71
2022/07/05 05:26:08;;;;;;;0.08;0.08;;;;;;;;;;5001657;28;20081;-71
2022/07/05 05:28:37;;;;;;;0.40;0.15;;;;;;;;;;5007593;28;20062;-72
2022/07/05 05:31:11;;;;;;;1.30;0.35;;;;;;;;;;5007348;28;20060;-73
2022/07/05 05:33:40;;;;;;;0.25;0.10;;;;;;;;;;5009169;28;20054;-71
2022/07/05 05:36:09;;;;;;;0.00;0.00;;;;;;;;;;5006049;28;20201;-71
2022/07/05 05:38:39;;;;;;;0.00;0.00;;;;;;;;;;4996109;28;20494;-71
2022/07/05 05:41:10;;;;;;;0.20;0.20;;;;;;;;;;5000208;28;20049;-71
2022/07/05 05:43:39;;;;;;;0.43;0.43;;;;;;;;;;5011795;28;20105;-71
2022/07/05 05:46:10;;;;;;;2.75;1.45;;;;;;;;;;5011032;28;20096;-71
2022/07/05 05:48:38;;;;;;;0.40;0.30;;;;;;;;;;4998249;28;20054;-73
2022/07/05 05:51:10;;;;;;;0.10;0.10;;;;;;;;;;5007399;28;20097;-71
2022/07/05 05:53:40;;;;;;;0.15;0.15;;;;;;;;;;5004541;28;20057;-71
2022/07/05 05:56:08;;;;;;;0.32;0.22;;;;;;;;;;5002615;28;20054;-73
2022/07/05 05:58:37;;;;;;;0.40;0.40;;;;;;;;;;4995798;28;20042;-72
2022/07/05 06:01:11;;;;;;;0.30;0.30;;;;;;;;;;5006892;28;20042;-71
2022/07/05 06:03:39;;;;;;;0.20;0.20;;;;;;;;;;5012328;28;20046;-71
2022/07/05 06:06:11;;;;;;;0.30;0.20;;;;;;;;;;5012513;28;20050;-71
2022/07/05 06:08:40;;;;;;;0.10;0.10;;;;;;;;;;5012205;28;20081;-72
2022/07/05 06:11:09;;;;;;;0.35;0.35;;;;;;;;;;5013157;28;20053;-72
2022/07/05 06:13:37;;;;;;;0.90;0.70;;;;;;;;;;5009552;28;20045;-74
2022/07/05 06:16:09;;;;;;;0.63;0.50;;;;;;;;;;5013358;28;20050;-76
2022/07/05 06:18:37;;;;;;;0.50;0.50;;;;;;;;;;4993157;28;20053;-73
2022/07/05 06:21:09;;;;;;;0.20;0.20;;;;;;;;;;4996976;28;20157;-76
2022/07/05 06:23:37;;;;;;;0.20;0.20;;;;;;;;;;5008143;28;20540;-73
2022/07/05 06:26:10;;;;;;;1.50;0.73;;;;;;;;;;5007248;28;20146;-76
2022/07/05 06:28:38;;;;;;;0.22;0.22;;;;;;;;;;5006115;28;20517;-72
2022/07/05 06:31:10;;;;;;;0.32;0.32;;;;;;;;;;4995952;28;20060;-73
2022/07/05 06:33:38;;;;;;;0.40;0.30;;;;;;;;;;4999182;28;20061;-77
2022/07/05 06:36:10;;;;;;;0.98;0.80;;;;;;;;;;5002293;28;20099;-73
2022/07/05 06:38:38;;;;;;;0.10;0.10;;;;;;;;;;5026798;28;20129;-74
2022/07/05 06:41:11;;;;;;;0.10;0.10;;;;;;;;;;5022113;28;20105;-72
2022/07/05 06:43:39;;;;;;;1.00;0.88;;;;;;;;;;5012404;28;20096;-74
2022/07/05 06:46:08;;;;;;;0.45;0.45;;;;;;;;;;5027804;28;20110;-73
2022/07/05 06:48:36;;;;;;;0.28;0.28;;;;;;;;;;5019859;28;20045;-74
2022/07/05 06:51:08;;;;;;;0.20;0.20;;;;;;;;;;5030580;28;20053;-71
2022/07/05 06:53:36;;;;;;;0.20;0.20;;;;;;;;;;5028995;28;20045;-72
2022/07/05 06:56:08;;;;;;;0.20;0.20;;;;;;;;;;5035543;28;20057;-71
2022/07/05 06:58:38;;;;;;;0.20;0.20;;;;;;;;;;5029826;28;20505;-71
2022/07/05 07:01:09;;;;;;;0.45;0.35;;;;;;;;;;5030560;28;20053;-72
2022/07/05 07:03:47;;;;;;;0.73;0.73;;;;;;;;;;5013493;28;20408;-71
2022/07/05 07:06:36;;;;;;;0.70;0.70;;;;;;;;;;5018508;28;20458;-72
2022/07/05 07:09:20;;;;;;;0.45;0.45;;;;;;;;;;5019949;28;20053;-71
2022/07/05 07:11:48;;;;;;;0.43;0.43;;;;;;;;;;5007001;28;20128;-72
2022/07/05 07:14:18;;;;;;;0.28;0.20;;;;;;;;;;5007933;28;20245;-70
2022/07/05 07:16:47;;;;;;;0.65;0.45;;;;;;;;;;5006288;28;20050;-69
2022/07/05 07:19:15;;;;;;;0.30;0.20;;;;;;;;;;5002011;28;20553;-73
2022/07/05 07:21:44;;;;;;;0.40;0.38;;;;;;;;;;5005405;28;20073;-70
2022/07/05 07:24:13;;;;;;;0.65;0.22;;;;;;;;;;5006345;28;20042;-69
2022/07/05 07:29:29;;;;;;;0.15;0.15;;;;;;;;;;5006749;28;20406;-70
2022/07/05 07:31:58;;;;;;;0.30;0.30;;;;;;;;;;5000023;28;20195;-70
2022/07/05 07:34:27;;;;;;;0.10;0.10;;;;;;;;;;5004780;28;20457;-74
2022/07/05 07:36:56;;;;;;;0.30;0.30;;;;;;;;;;5004200;28;20073;-70
2022/07/05 07:39:24;;;;;;;0.20;0.20;;;;;;;;;;5026035;28;20045;-70
2022/07/05 07:41:52;;;;;;;0.17;0.17;;;;;;;;;;5022792;28;20052;-70
2022/07/05 07:44:20;;;;;;;0.30;0.30;;;;;;;;;;5017067;28;20081;-71
2022/07/05 07:46:50;;;;;;;0.20;0.17;;;;;;;;;;5023294;28;20485;-74
2022/07/05 07:49:19;;;;;;;0.60;0.30;;;;;;;;;;5017432;28;20081;-72
2022/07/05 07:51:47;;;;;;;0.20;0.20;;;;;;;;;;5017884;28;20099;-72
2022/07/05 07:54:16;;;;;;;0.25;0.25;;;;;;;;;;5015336;28;20048;-72
2022/07/05 07:56:45;;;;;;;0.30;0.30;;;;;;;;;;5021073;28;20080;-72
2022/07/05 07:59:13;;;;;;;0.25;0.25;;;;;;;;;;5017669;28;20377;-73
2022/07/05 08:01:42;;;;;;;0.20;0.20;;;;;;;;;;5016944;28;20046;-72
2022/07/05 08:04:15;;;;;;;0.20;0.20;;;;;;;;;;5027168;28;20544;-71
2022/07/05 08:06:44;;;;;;;0.50;0.20;;;;;;;;;;5013872;28;20050;-74
2022/07/05 08:09:14;;;;;;;0.00;0.00;;;;;;;;;;5021791;28;20053;-73
2022/07/05 08:11:46;;;;;;;0.20;0.20;;;;;;;;;;5034060;28;20084;-71
2022/07/05 08:14:15;;;;;;;0.13;0.10;;;;;;;;;;5025031;28;20051;-71
2022/07/05 08:16:44;;;;;;;0.28;0.28;;;;;;;;;;5036380;28;20432;-72
2022/07/05 08:22:08;;;;;;;0.20;0.20;;;;;;;;;;5020761;28;20042;-73
2022/07/05 08:24:39;;;;;;;0.10;0.10;;;;;;;;;;5032650;28;20457;-72
2022/07/05 08:27:08;;;;;;;0.03;0.03;;;;;;;;;;5013414;28;20053;-71
2022/07/05 08:29:37;;;;;;;0.00;0.00;;;;;;;;;;5025088;28;20485;-71
2022/07/05 08:32:07;;;;;;;0.35;0.35;;;;;;;;;;5032256;28;20140;-71
2022/07/05 08:34:38;;;;;;;0.65;0.10;;;;;;;;;;5034834;28;20057;-72
2022/07/05 08:37:07;;;;;;;0.10;0.10;;;;;;;;;;5021016;28;20554;-71
2022/07/05 08:39:43;;;;;;;0.03;0.00;;;;;;;;;;5017845;28;20054;-71
2022/07/05 08:42:12;;;;;;;0.10;0.10;;;;;;;;;;5025796;28;20048;-71
2022/07/05 08:44:41;;;;;;;0.00;0.00;;;;;;;;;;5032142;28;20049;-73
2022/07/05 08:47:11;;;;;;;0.35;0.20;;;;;;;;;;5017585;28;20061;-74
2022/07/05 08:49:41;;;;;;;0.25;0.10;;;;;;;;;;5018146;28;20074;-75
2022/07/05 08:52:12;;;;;;;0.03;0.03;;;;;;;;;;5032311;28;20402;-76
2022/07/05 08:54:41;;;;;;;0.10;0.10;;;;;;;;;;5018233;28;20490;-76
2022/07/05 08:57:10;;;;;;;0.10;0.10;;;;;;;;;;5021620;28;20041;-74
2022/07/05 08:59:41;;;;;;;0.00;0.00;;;;;;;;;;5018879;28;21024;-71
2022/07/05 09:02:12;;;;;;;0.00;0.00;;;;;;;;;;5030397;28;20045;-72
2022/07/05 09:04:46;;;;;;;0.00;0.00;;;;;;;;;;5019644;28;20420;-73
2022/07/05 09:07:18;;;;;;;0.00;0.00;;;;;;;;;;5028998;28;20049;-71
2022/07/05 09:09:50;;;;;;;0.00;0.00;;;;;;;;;;5033115;28;20042;-72
2022/07/05 09:12:19;;;;;;;0.32;0.28;;;;;;;;;;5022857;28;20498;-71
2022/07/05 09:14:51;;;;;;;0.05;0.05;;;;;;;;;;5032017;28;20085;-71
2022/07/05 09:17:20;;;;;;;0.10;0.10;;;;;;;;;;5024394;28;20069;-71
2022/07/05 09:20:06;;;;;;;0.20;0.15;;;;;;;;;;5032627;28;20505;-69
2022/07/05 09:22:45;;;;;;;0.00;0.00;;;;;;;;;;5023654;28;20054;-70
2022/07/05 09:25:17;;;;;;;0.10;0.10;;;;;;;;;;5027961;28;20545;-69
2022/07/05 09:27:49;;;;;;;0.10;0.10;;;;;;;;;;5030678;28;20491;-70
2022/07/05 09:30:31;;;;;;;0.15;0.15;;;;;;;;;;5033155;28;20053;-70
2022/07/05 09:33:03;;;;;;;0.10;0.10;;;;;;;;;;5031561;28;20088;-70
2022/07/05 09:35:33;;;;;;;0.10;0.10;;;;;;;;;;5031496;28;20096;-71
2022/07/05 09:38:03;;;;;;;0.10;0.10;;;;;;;;;;5027759;28;20049;-70
2022/07/05 09:40:32;;;;;;;0.00;0.00;;;;;;;;;;5025971;28;20054;-70
2022/07/05 09:43:21;;;;;;;0.10;0.10;;;;;;;;;;5032105;28;20045;-70
2022/07/05 09:45:57;;;;;;;0.10;0.10;;;;;;;;;;5026413;28;20608;-72
2022/07/05 09:48:25;;;;;;;0.13;0.13;;;;;;;;;;5030782;28;20444;-71
2022/07/05 09:51:10;;;;;;;0.55;0.55;;;;;;;;;;5025121;28;20053;-71
2022/07/05 09:54:00;;;;;;;0.10;0.10;;;;;;;;;;5032388;28;20138;-71
2022/07/05 09:56:44;;;;;;;0.10;0.10;;;;;;;;;;5028109;28;20041;-72
2022/07/05 09:59:18;;;;;;;0.50;0.50;;;;;;;;;;5030354;28;20053;-72
2022/07/05 10:01:46;;;;;;;0.35;0.17;;;;;;;;;;5016015;28;20555;-73
2022/07/05 10:04:15;;;;;;;0.10;0.10;;;;;;;;;;5016994;28;20482;-71
2022/07/05 10:06:46;;;;;;;0.10;0.10;;;;;;;;;;5029613;28;20115;-72
2022/07/05 10:09:15;;;;;;;0.10;0.10;;;;;;;;;;5028210;28;20103;-71
2022/07/05 10:11:44;;;;;;;0.00;0.00;;;;;;;;;;5023879;28;20128;-70
2022/07/05 10:14:16;;;;;;;1.40;0.10;;;;;;;;;;5030607;28;20498;-71
2022/07/05 10:16:47;;;;;;;0.10;0.10;;;;;;;;;;5029686;28;20053;-71
2022/07/05 10:19:17;;;;;;;0.00;0.00;;;;;;;;;;5030669;28;20045;-72
2022/07/05 10:21:47;;;;;;;2.13;0.43;;;;;;;;;;5031602;28;20493;-74
2022/07/05 10:24:37;;;;;;;0.85;0.40;;;;;;;;;;5030923;28;20103;-71
2022/07/05 10:27:08;;;;;;;0.00;0.00;;;;;;;;;;5028547;28;20044;-71
2022/07/05 10:29:38;;;;;;;0.10;0.10;;;;;;;;;;5027112;28;20049;-71
2022/07/05 10:32:10;;;;;;;0.00;0.00;;;;;;;;;;5030175;28;20080;-73
2022/07/05 10:34:39;;;;;;;2.67;0.82;;;;;;;;;;5030333;28;20115;-75
2022/07/05 10:37:28;;;;;;;0.10;0.10;;;;;;;;;;5030082;28;20049;-76
2022/07/05 10:39:58;;;;;;;0.77;0.32;;;;;;;;;;5030878;28;20057;-71
2022/07/05 10:42:28;;;;;;;0.10;0.10;;;;;;;;;;5028376;28;20096;-74
2022/07/05 10:44:57;;;;;;;0.10;0.10;;;;;;;;;;5032155;28;20119;-71
2022/07/05 10:47:27;;;;;;;0.68;0.10;;;;;;;;;;5023895;28;20045;-72
2022/07/05 10:50:02;;;;;;;0.20;0.15;;;;;;;;;;5031078;28;20049;-72
2022/07/05 10:52:32;;;;;;;0.75;0.10;;;;;;;;;;5030268;28;20140;-73
2022/07/05 10:55:20;;;;;;;0.20;0.20;;;;;;;;;;5034573;28;20132;-73
2022/07/05 10:58:03;;;;;;;0.00;0.00;;;;;;;;;;5028586;28;20144;-73
2022/07/05 11:00:31;;;;;;;0.10;0.10;;;;;;;;;;5023378;28;20053;-75
2022/07/05 11:03:07;;;;;;;0.10;0.10;;;;;;;;;;5026543;28;20041;-71
2022/07/05 11:05:37;;;;;;;0.43;0.15;;;;;;;;;;5024529;28;20053;-72
2022/07/05 11:08:17;;;;;;;0.20;0.20;;;;;;;;;;5027730;28;20071;-72
2022/07/05 11:11:00;;;;;;;0.20;0.10;;;;;;;;;;5030894;28;20374;-71
2022/07/05 11:13:38;;;;;;;0.10;0.10;;;;;;;;;;5031131;28;20325;-72
2022/07/05 11:16:22;;;;;;;0.10;0.10;;;;;;;;;;5027174;28;20053;-71
2022/07/05 11:18:51;;;;;;;0.10;0.10;;;;;;;;;;5009222;28;20073;-71
2022/07/05 11:21:21;;;;;;;0.20;0.05;;;;;;;;;;5029147;28;20107;-72
2022/07/05 11:23:51;;;;;;;0.30;0.30;;;;;;;;;;5029805;28;20057;-74
2022/07/05 11:26:26;;;;;;;0.10;0.10;;;;;;;;;;5029138;28;20099;-71
2022/07/05 11:28:55;;;;;;;0.17;0.10;;;;;;;;;;5031533;28;20103;-71
2022/07/05 11:31:39;;;;;;;0.10;0.10;;;;;;;;;;5028072;28;20413;-75
2022/07/05 11:34:14;;;;;;;0.10;0.10;;;;;;;;;;5031308;28;20084;-74
2022/07/05 11:36:43;;;;;;;0.08;0.08;;;;;;;;;;5025013;28;20050;-73
2022/07/05 11:39:33;;;;;;;0.15;0.15;;;;;;;;;;5030828;28;20555;-74
2022/07/05 11:42:01;;;;;;;0.20;0.20;;;;;;;;;;5024848;28;20448;-76
2022/07/05 11:44:33;;;;;;;0.10;0.10;;;;;;;;;;5032396;28;20049;-72
2022/07/05 11:47:21;;;;;;;0.20;0.20;;;;;;;;;;5029755;28;20044;-73
2022/07/05 11:49:54;;;;;;;0.28;0.22;;;;;;;;;;5036159;28;20104;-71
2022/07/05 11:52:27;;;;;;;0.10;0.10;;;;;;;;;;5033590;28;20095;-73
2022/07/05 11:54:57;;;;;;;0.50;0.15;;;;;;;;;;5028736;28;20092;-73
2022/07/05 11:57:26;;;;;;;0.30;0.28;;;;;;;;;;5031586;28;20045;-72
2022/07/05 11:59:55;;;;;;;0.98;0.20;;;;;;;;;;5024206;28;20041;-76
2022/07/05 12:02:23;;;;;;;0.10;0.10;;;;;;;;;;5023136;28;20165;-71
2022/07/05 12:04:52;;;;;;;0.00;0.00;;;;;;;;;;5029526;28;20081;-73
2022/07/05 12:07:27;;;;;;;0.28;0.28;;;;;;;;;;5032392;28;20088;-73
2022/07/05 12:12:44;;;;;;;0.00;0.00;;;;;;;;;;5026872;28;20084;-71
2022/07/05 12:15:13;;;;;;;0.17;0.17;;;;;;;;;;5031802;28;20050;-73
2022/07/05 12:17:42;;;;;;;0.22;0.17;;;;;;;;;;5023365;28;20581;-72
2022/07/05 12:20:12;;;;;;;0.10;0.10;;;;;;;;;;5027493;28;20073;-74
2022/07/05 12:22:41;;;;;;;0.20;0.20;;;;;;;;;;5033552;28;20057;-73
2022/07/05 12:25:12;;;;;;;0.00;0.00;;;;;;;;;;5031539;28;20115;-75
2022/07/05 12:27:42;;;;;;;1.10;0.55;;;;;;;;;;5031027;28;20049;-73
2022/07/05 12:30:11;;;;;;;0.28;0.28;;;;;;;;;;5031031;28;20575;-75
2022/07/05 12:32:54;;;;;;;0.22;0.22;;;;;;;;;;5029452;28;20049;-74
2022/07/05 12:35:30;;;;;;;0.17;0.10;;;;;;;;;;5021506;28;20046;-73
2022/07/05 12:38:03;;;;;;;0.20;0.20;;;;;;;;;;5031105;28;20138;-73
2022/07/05 12:40:33;;;;;;;0.52;0.20;;;;;;;;;;5031463;28;20550;-72
2022/07/05 12:43:03;;;;;;;0.28;0.20;;;;;;;;;;5031606;28;20042;-72
2022/07/05 12:45:32;;;;;;;0.15;0.15;;;;;;;;;;5014971;28;20391;-74
2022/07/05 12:48:01;;;;;;;0.10;0.10;;;;;;;;;;5031684;28;20501;-73
2022/07/05 12:50:31;;;;;;;0.10;0.10;;;;;;;;;;5030618;28;20064;-73
2022/07/05 12:59:01;;;;;;;0.13;0.13;;;;;;;;;;5015044;28;20123;-73
2022/07/05 13:01:31;;;;;;;0.43;0.15;;;;;;;;;;5031017;28;20465;-72
2022/07/05 13:04:01;;;;;;;0.10;0.10;;;;;;;;;;5013159;28;20060;-72
2022/07/05 13:06:42;;;;;;;0.30;0.20;;;;;;;;;;5029199;28;20052;-73
2022/07/05 13:09:11;;;;;;;1.48;0.52;;;;;;;;;;5013587;28;20561;-73
2022/07/05 13:11:41;;;;;;;0.10;0.10;;;;;;;;;;5029507;28;20061;-73
2022/07/05 13:14:10;;;;;;;0.25;0.20;;;;;;;;;;5031100;28;20053;-73
2022/07/05 13:16:39;;;;;;;0.00;0.00;;;;;;;;;;5027863;28;20060;-74
2022/07/05 13:19:08;;;;;;;0.10;0.10;;;;;;;;;;5028986;28;20046;-73
2022/07/05 13:21:37;;;;;;;0.10;0.10;;;;;;;;;;5030717;28;20042;-73
2022/07/05 13:24:06;;;;;;;0.68;0.50;;;;;;;;;;5032157;28;20115;-74
2022/07/05 13:26:35;;;;;;;0.10;0.10;;;;;;;;;;5030386;28;20124;-74
2022/07/05 13:29:05;;;;;;;0.32;0.30;;;;;;;;;;5030924;28;20111;-74
2022/07/05 13:31:34;;;;;;;0.10;0.08;;;;;;;;;;5031206;28;20053;-73
2022/07/05 13:34:02;;;;;;;0.10;0.10;;;;;;;;;;5031163;28;20080;-74
2022/07/05 13:36:32;;;;;;;0.38;0.10;;;;;;;;;;5028737;28;20066;-75
2022/07/05 13:39:00;;;;;;;0.20;0.20;;;;;;;;;;5029835;28;20053;-76
2022/07/05 13:41:29;;;;;;;0.10;0.10;;;;;;;;;;5029488;28;20041;-74
2022/07/05 13:43:57;;;;;;;0.00;0.00;;;;;;;;;;5030332;28;20132;-73
2022/07/05 13:46:27;;;;;;;0.20;0.20;;;;;;;;;;5028344;28;20128;-73
2022/07/05 13:48:56;;;;;;;0.10;0.10;;;;;;;;;;5018699;28;20561;-76
2022/07/05 13:51:24;;;;;;;0.32;0.15;;;;;;;;;;5027609;28;20472;-75
2022/07/05 13:53:57;;;;;;;0.10;0.10;;;;;;;;;;5019288;28;20055;-74
2022/07/05 13:56:26;;;;;;;0.10;0.10;;;;;;;;;;5030653;28;20081;-73
2022/07/05 13:58:55;;;;;;;0.10;0.10;;;;;;;;;;5030854;28;20052;-74
2022/07/05 14:01:26;;;;;;;0.00;0.00;;;;;;;;;;5030683;28;20144;-77
2022/07/05 14:03:58;;;;;;;0.20;0.20;;;;;;;;;;5028063;28;20041;-76
2022/07/05 14:06:27;;;;;;;0.20;0.20;;;;;;;;;;5029388;28;20087;-74
2022/07/05 14:08:56;;;;;;;0.17;0.17;;;;;;;;;;5030648;28;20049;-75
2022/07/05 14:11:26;;;;;;;0.22;0.20;;;;;;;;;;5021195;28;20220;-74
2022/07/05 14:13:54;;;;;;;1.65;0.55;;;;;;;;;;5025393;28;20080;-75
2022/07/05 14:16:24;;;;;;;0.75;0.25;;;;;;;;;;5030382;28;20041;-73
2022/07/05 14:18:54;;;;;;;0.05;0.05;;;;;;;;;;5027999;28;20045;-74
2022/07/05 14:21:25;;;;;;;0.28;0.20;;;;;;;;;;5030207;28;20785;-73
2022/07/05 14:24:05;;;;;;;0.10;0.10;;;;;;;;;;5027535;28;20048;-74
2022/07/05 14:26:34;;;;;;;0.40;0.15;;;;;;;;;;5025894;28;20508;-73
2022/07/05 14:29:03;;;;;;;0.10;0.10;;;;;;;;;;5022941;28;20045;-75
2022/07/05 14:31:32;;;;;;;0.10;0.10;;;;;;;;;;5030111;28;20128;-73
2022/07/05 14:34:01;;;;;;;0.10;0.10;;;;;;;;;;5027462;28;20879;-73
2022/07/05 14:36:31;;;;;;;0.00;0.00;;;;;;;;;;5027484;28;20065;-73
2022/07/05 14:39:00;;;;;;;0.10;0.00;;;;;;;;;;5030084;28;20068;-73
2022/07/05 14:41:29;;;;;;;1.20;0.20;;;;;;;;;;5023787;28;20092;-72
2022/07/05 14:43:58;;;;;;;0.65;0.25;;;;;;;;;;5029553;28;20068;-73
2022/07/05 14:46:27;;;;;;;0.20;0.20;;;;;;;;;;5030447;28;20054;-73
2022/07/05 14:48:56;;;;;;;0.17;0.05;;;;;;;;;;5026811;28;20077;-73
2022/07/05 14:51:25;;;;;;;0.50;0.40;;;;;;;;;;5029539;28;20428;-72
2022/07/05 14:53:55;;;;;;;1.65;0.20;;;;;;;;;;5031387;28;20053;-73
2022/07/05 14:56:24;;;;;;;0.10;0.10;;;;;;;;;;5029438;28;20053;-72
2022/07/05 14:58:53;;;;;;;0.00;0.00;;;;;;;;;;5024389;28;20045;-73
2022/07/05 15:01:22;;;;;;;0.15;0.15;;;;;;;;;;5023445;28;20092;-73
2022/07/05 15:03:51;;;;;;;0.00;0.00;;;;;;;;;;5019751;28;20049;-73
2022/07/05 15:06:19;;;;;;;0.20;0.20;;;;;;;;;;5023764;28;20065;-73
2022/07/05 15:08:48;;;;;;;0.10;0.10;;;;;;;;;;5025992;28;20482;-73
2022/07/05 15:11:18;;;;;;;0.20;0.20;;;;;;;;;;5027031;28;20053;-73
2022/07/05 15:13:47;;;;;;;0.30;0.20;;;;;;;;;;5030407;28;20053;-75
2022/07/05 15:16:16;;;;;;;0.22;0.22;;;;;;;;;;5029481;28;20559;-73